sensor_id;sensor_type;location;lat;lon;timestamp;P1;durP1;ratioP1;P2;durP2;ratioP2
31990;SDS011;18508;49.386;8.370;2022-08-01T00:01:28;4.15;;;2.40;;
31990;SDS011;18508;49.386;8.370;2022-08-01T00:03:56;4.72;;;2.58;;
31990;SDS011;18508;49.386;8.370;2022-08-01T00:06:24;4.22;;;2.40;;
31990;SDS011;18508;49.386;8.370;2022-08-01T00:08:53;4.45;;;2.35;;
31990;SDS011;18508;49.386;8.370;2022-08-01T00:11:21;3.47;;;2.63;;
31990;SDS011;18508;49.386;8.370;2022-08-01T00:13:49;4.35;;;2.42;;
31990;SDS011;18508;49.386;8.370;2022-08-01T00:16:17;6.07;;;2.38;;
31990;SDS011;18508;49.386;8.370;2022-08-01T00:18:47;4.57;;;2.50;;
31990;SDS011;18508;49.386;8.370;2022-08-01T00:21:15;3.67;;;2.42;;
31990;SDS011;18508;49.386;8.370;2022-08-01T00:23:43;3.60;;;2.70;;
31990;SDS011;18508;49.386;8.370;2022-08-01T00:26:12;4.28;;;2.22;;
31990;SDS011;18508;49.386;8.370;2022-08-01T00:28:40;4.05;;;2.42;;
31990;SDS011;18508;49.386;8.370;2022-08-01T00:31:08;3.47;;;2.53;;
31990;SDS011;18508;49.386;8.370;2022-08-01T00:33:36;4.43;;;2.30;;
31990;SDS011;18508;49.386;8.370;2022-08-01T00:36:06;3.47;;;2.10;;
31990;SDS011;18508;49.386;8.370;2022-08-01T00:38:34;5.10;;;2.60;;
31990;SDS011;18508;49.386;8.370;2022-08-01T00:41:02;3.28;;;2.40;;
31990;SDS011;18508;49.386;8.370;2022-08-01T00:43:30;4.60;;;2.17;;
31990;SDS011;18508;49.386;8.370;2022-08-01T00:45:58;3.63;;;2.30;;
31990;SDS011;18508;49.386;8.370;2022-08-01T00:48:26;3.63;;;2.00;;
31990;SDS011;18508;49.386;8.370;2022-08-01T00:50:54;4.13;;;2.25;;
31990;SDS011;18508;49.386;8.370;2022-08-01T00:53:24;3.08;;;2.08;;
31990;SDS011;18508;49.386;8.370;2022-08-01T00:56:13;5.88;;;2.60;;
31990;SDS011;18508;49.386;8.370;2022-08-01T00:58:41;3.85;;;2.38;;
31990;SDS011;18508;49.386;8.370;2022-08-01T01:01:11;3.05;;;2.10;;
31990;SDS011;18508;49.386;8.370;2022-08-01T01:03:39;6.43;;;2.50;;
31990;SDS011;18508;49.386;8.370;2022-08-01T01:06:30;4.03;;;2.45;;
31990;SDS011;18508;49.386;8.370;2022-08-01T01:09:17;4.60;;;3.13;;
31990;SDS011;18508;49.386;8.370;2022-08-01T01:11:54;4.03;;;2.33;;
31990;SDS011;18508;49.386;8.370;2022-08-01T01:14:31;5.35;;;2.40;;
31990;SDS011;18508;49.386;8.370;2022-08-01T01:17:04;4.47;;;2.38;;
31990;SDS011;18508;49.386;8.370;2022-08-01T01:19:36;4.85;;;2.67;;
31990;SDS011;18508;49.386;8.370;2022-08-01T01:25:17;4.18;;;2.30;;
31990;SDS011;18508;49.386;8.370;2022-08-01T01:28:02;4.10;;;2.55;;
31990;SDS011;18508;49.386;8.370;2022-08-01T01:30:38;4.53;;;2.63;;
31990;SDS011;18508;49.386;8.370;2022-08-01T01:33:10;3.25;;;2.20;;
31990;SDS011;18508;49.386;8.370;2022-08-01T01:35:41;4.70;;;2.70;;
31990;SDS011;18508;49.386;8.370;2022-08-01T01:38:14;10.15;;;3.10;;
31990;SDS011;18508;49.386;8.370;2022-08-01T01:40:45;4.93;;;2.28;;
31990;SDS011;18508;49.386;8.370;2022-08-01T01:43:15;4.90;;;2.50;;
31990;SDS011;18508;49.386;8.370;2022-08-01T01:45:47;4.47;;;3.13;;
31990;SDS011;18508;49.386;8.370;2022-08-01T01:48:18;3.45;;;2.13;;
31990;SDS011;18508;49.386;8.370;2022-08-01T01:50:48;5.93;;;2.40;;
31990;SDS011;18508;49.386;8.370;2022-08-01T01:53:19;8.60;;;2.63;;
31990;SDS011;18508;49.386;8.370;2022-08-01T01:55:50;7.00;;;2.80;;
31990;SDS011;18508;49.386;8.370;2022-08-01T01:58:20;3.63;;;2.53;;
31990;SDS011;18508;49.386;8.370;2022-08-01T02:00:51;4.95;;;2.25;;
31990;SDS011;18508;49.386;8.370;2022-08-01T02:03:23;3.50;;;2.28;;
31990;SDS011;18508;49.386;8.370;2022-08-01T02:05:53;4.78;;;2.47;;
31990;SDS011;18508;49.386;8.370;2022-08-01T02:08:23;3.40;;;2.17;;
31990;SDS011;18508;49.386;8.370;2022-08-01T02:10:51;6.47;;;2.50;;
31990;SDS011;18508;49.386;8.370;2022-08-01T02:13:40;4.43;;;2.78;;
31990;SDS011;18508;49.386;8.370;2022-08-01T02:16:10;5.78;;;2.70;;
31990;SDS011;18508;49.386;8.370;2022-08-01T02:18:40;5.22;;;2.70;;
31990;SDS011;18508;49.386;8.370;2022-08-01T02:21:09;7.93;;;3.35;;
31990;SDS011;18508;49.386;8.370;2022-08-01T02:23:41;6.03;;;3.15;;
31990;SDS011;18508;49.386;8.370;2022-08-01T02:26:13;12.38;;;4.25;;
31990;SDS011;18508;49.386;8.370;2022-08-01T02:28:43;7.03;;;3.27;;
31990;SDS011;18508;49.386;8.370;2022-08-01T02:31:16;10.93;;;3.83;;
31990;SDS011;18508;49.386;8.370;2022-08-01T02:33:50;8.60;;;3.33;;
31990;SDS011;18508;49.386;8.370;2022-08-01T02:36:23;17.38;;;5.47;;
31990;SDS011;18508;49.386;8.370;2022-08-01T02:38:59;6.57;;;2.78;;
31990;SDS011;18508;49.386;8.370;2022-08-01T02:41:49;5.07;;;3.08;;
31990;SDS011;18508;49.386;8.370;2022-08-01T02:44:22;4.35;;;2.55;;
31990;SDS011;18508;49.386;8.370;2022-08-01T02:46:54;4.95;;;2.60;;
31990;SDS011;18508;49.386;8.370;2022-08-01T02:49:29;13.40;;;3.90;;
31990;SDS011;18508;49.386;8.370;2022-08-01T02:51:59;13.57;;;4.30;;
31990;SDS011;18508;49.386;8.370;2022-08-01T02:54:31;13.88;;;3.35;;
31990;SDS011;18508;49.386;8.370;2022-08-01T02:57:01;5.13;;;2.53;;
31990;SDS011;18508;49.386;8.370;2022-08-01T02:59:31;4.05;;;2.40;;
31990;SDS011;18508;49.386;8.370;2022-08-01T03:02:07;7.03;;;3.80;;
31990;SDS011;18508;49.386;8.370;2022-08-01T03:04:38;8.50;;;2.97;;
31990;SDS011;18508;49.386;8.370;2022-08-01T03:07:08;15.50;;;3.55;;
31990;SDS011;18508;49.386;8.370;2022-08-01T03:09:38;6.55;;;2.42;;
31990;SDS011;18508;49.386;8.370;2022-08-01T03:12:08;5.80;;;2.70;;
31990;SDS011;18508;49.386;8.370;2022-08-01T03:14:40;19.17;;;4.93;;
31990;SDS011;18508;49.386;8.370;2022-08-01T03:17:14;4.75;;;2.95;;
31990;SDS011;18508;49.386;8.370;2022-08-01T03:19:45;5.78;;;2.70;;
31990;SDS011;18508;49.386;8.370;2022-08-01T03:22:16;12.43;;;3.55;;
31990;SDS011;18508;49.386;8.370;2022-08-01T03:24:47;4.43;;;2.45;;
31990;SDS011;18508;49.386;8.370;2022-08-01T03:27:17;8.55;;;2.70;;
31990;SDS011;18508;49.386;8.370;2022-08-01T03:29:48;5.55;;;2.40;;
31990;SDS011;18508;49.386;8.370;2022-08-01T03:32:19;5.13;;;2.30;;
31990;SDS011;18508;49.386;8.370;2022-08-01T03:34:51;5.70;;;2.97;;
31990;SDS011;18508;49.386;8.370;2022-08-01T03:37:21;4.25;;;2.83;;
31990;SDS011;18508;49.386;8.370;2022-08-01T03:39:55;5.18;;;2.78;;
31990;SDS011;18508;49.386;8.370;2022-08-01T03:42:32;6.50;;;3.00;;
31990;SDS011;18508;49.386;8.370;2022-08-01T03:45:06;5.70;;;2.77;;
31990;SDS011;18508;49.386;8.370;2022-08-01T03:47:41;4.88;;;3.08;;
31990;SDS011;18508;49.386;8.370;2022-08-01T03:50:12;4.75;;;2.78;;
31990;SDS011;18508;49.386;8.370;2022-08-01T03:52:41;4.03;;;2.65;;
31990;SDS011;18508;49.386;8.370;2022-08-01T03:55:12;4.65;;;2.50;;
31990;SDS011;18508;49.386;8.370;2022-08-01T03:57:43;4.88;;;2.90;;
31990;SDS011;18508;49.386;8.370;2022-08-01T04:00:13;9.25;;;3.40;;
31990;SDS011;18508;49.386;8.370;2022-08-01T04:02:46;4.28;;;2.90;;
31990;SDS011;18508;49.386;8.370;2022-08-01T04:05:18;4.93;;;3.13;;
31990;SDS011;18508;49.386;8.370;2022-08-01T04:07:47;4.45;;;2.60;;
31990;SDS011;18508;49.386;8.370;2022-08-01T04:10:21;7.68;;;3.00;;
31990;SDS011;18508;49.386;8.370;2022-08-01T04:12:50;6.13;;;2.92;;
31990;SDS011;18508;49.386;8.370;2022-08-01T04:15:19;6.70;;;2.85;;
31990;SDS011;18508;49.386;8.370;2022-08-01T04:17:49;4.68;;;2.65;;
31990;SDS011;18508;49.386;8.370;2022-08-01T04:20:17;4.22;;;2.30;;
31990;SDS011;18508;49.386;8.370;2022-08-01T04:22:45;6.30;;;2.70;;
31990;SDS011;18508;49.386;8.370;2022-08-01T04:25:19;5.60;;;3.03;;
31990;SDS011;18508;49.386;8.370;2022-08-01T04:27:51;4.13;;;2.72;;
31990;SDS011;18508;49.386;8.370;2022-08-01T04:30:20;6.80;;;2.70;;
31990;SDS011;18508;49.386;8.370;2022-08-01T04:32:55;7.13;;;2.72;;
31990;SDS011;18508;49.386;8.370;2022-08-01T04:35:26;7.65;;;2.97;;
31990;SDS011;18508;49.386;8.370;2022-08-01T04:38:17;4.32;;;2.58;;
31990;SDS011;18508;49.386;8.370;2022-08-01T04:40:52;5.60;;;2.97;;
31990;SDS011;18508;49.386;8.370;2022-08-01T04:43:21;4.72;;;2.80;;
31990;SDS011;18508;49.386;8.370;2022-08-01T04:45:50;6.63;;;2.92;;
31990;SDS011;18508;49.386;8.370;2022-08-01T04:48:20;3.92;;;2.20;;
31990;SDS011;18508;49.386;8.370;2022-08-01T04:50:50;6.55;;;2.55;;
31990;SDS011;18508;49.386;8.370;2022-08-01T04:53:19;4.53;;;2.60;;
31990;SDS011;18508;49.386;8.370;2022-08-01T04:55:48;6.43;;;3.05;;
31990;SDS011;18508;49.386;8.370;2022-08-01T04:58:17;5.65;;;3.13;;
31990;SDS011;18508;49.386;8.370;2022-08-01T05:00:45;5.20;;;2.38;;
31990;SDS011;18508;49.386;8.370;2022-08-01T05:03:14;4.22;;;2.53;;
31990;SDS011;18508;49.386;8.370;2022-08-01T05:05:44;4.43;;;2.58;;
31990;SDS011;18508;49.386;8.370;2022-08-01T05:08:12;6.47;;;3.10;;
31990;SDS011;18508;49.386;8.370;2022-08-01T05:10:42;4.18;;;3.00;;
31990;SDS011;18508;49.386;8.370;2022-08-01T05:13:11;5.20;;;3.20;;
31990;SDS011;18508;49.386;8.370;2022-08-01T05:15:39;4.90;;;3.08;;
31990;SDS011;18508;49.386;8.370;2022-08-01T05:18:07;6.97;;;3.10;;
31990;SDS011;18508;49.386;8.370;2022-08-01T05:20:37;5.03;;;3.10;;
31990;SDS011;18508;49.386;8.370;2022-08-01T05:23:07;6.85;;;2.88;;
31990;SDS011;18508;49.386;8.370;2022-08-01T05:25:53;6.97;;;2.90;;
31990;SDS011;18508;49.386;8.370;2022-08-01T05:28:24;8.68;;;3.33;;
31990;SDS011;18508;49.386;8.370;2022-08-01T05:30:52;9.52;;;3.90;;
31990;SDS011;18508;49.386;8.370;2022-08-01T05:33:21;9.30;;;3.47;;
31990;SDS011;18508;49.386;8.370;2022-08-01T05:35:49;6.15;;;2.80;;
31990;SDS011;18508;49.386;8.370;2022-08-01T05:38:19;6.68;;;3.08;;
31990;SDS011;18508;49.386;8.370;2022-08-01T05:40:47;10.30;;;3.20;;
31990;SDS011;18508;49.386;8.370;2022-08-01T05:43:20;6.85;;;2.80;;
31990;SDS011;18508;49.386;8.370;2022-08-01T05:45:54;8.40;;;3.75;;
31990;SDS011;18508;49.386;8.370;2022-08-01T05:48:23;8.05;;;3.38;;
31990;SDS011;18508;49.386;8.370;2022-08-01T05:50:51;8.98;;;2.50;;
31990;SDS011;18508;49.386;8.370;2022-08-01T05:55:53;4.20;;;2.35;;
31990;SDS011;18508;49.386;8.370;2022-08-01T05:58:21;3.42;;;1.85;;
31990;SDS011;18508;49.386;8.370;2022-08-01T06:00:49;4.10;;;1.92;;
31990;SDS011;18508;49.386;8.370;2022-08-01T06:03:18;4.00;;;2.05;;
31990;SDS011;18508;49.386;8.370;2022-08-01T06:05:46;6.13;;;2.08;;
31990;SDS011;18508;49.386;8.370;2022-08-01T06:08:14;3.97;;;1.80;;
31990;SDS011;18508;49.386;8.370;2022-08-01T06:10:44;5.55;;;2.10;;
31990;SDS011;18508;49.386;8.370;2022-08-01T06:13:12;4.55;;;2.00;;
31990;SDS011;18508;49.386;8.370;2022-08-01T06:15:40;3.63;;;1.77;;
31990;SDS011;18508;49.386;8.370;2022-08-01T06:18:08;2.72;;;1.52;;
31990;SDS011;18508;49.386;8.370;2022-08-01T06:20:40;5.25;;;1.30;;
31990;SDS011;18508;49.386;8.370;2022-08-01T06:23:08;4.72;;;1.10;;
31990;SDS011;18508;49.386;8.370;2022-08-01T06:26:01;2.40;;;1.42;;
31990;SDS011;18508;49.386;8.370;2022-08-01T06:28:36;3.08;;;1.08;;
31990;SDS011;18508;49.386;8.370;2022-08-01T06:31:08;2.47;;;1.00;;
31990;SDS011;18508;49.386;8.370;2022-08-01T06:33:42;2.28;;;0.90;;
31990;SDS011;18508;49.386;8.370;2022-08-01T06:36:11;3.67;;;1.10;;
31990;SDS011;18508;49.386;8.370;2022-08-01T06:38:39;2.83;;;1.00;;
31990;SDS011;18508;49.386;8.370;2022-08-01T06:41:11;4.53;;;1.05;;
31990;SDS011;18508;49.386;8.370;2022-08-01T06:43:39;5.78;;;1.45;;
31990;SDS011;18508;49.386;8.370;2022-08-01T06:46:07;5.85;;;1.35;;
31990;SDS011;18508;49.386;8.370;2022-08-01T06:48:35;4.40;;;1.20;;
31990;SDS011;18508;49.386;8.370;2022-08-01T06:51:05;4.78;;;1.40;;
31990;SDS011;18508;49.386;8.370;2022-08-01T06:53:39;8.00;;;1.33;;
31990;SDS011;18508;49.386;8.370;2022-08-01T06:56:09;4.40;;;1.30;;
31990;SDS011;18508;49.386;8.370;2022-08-01T06:58:38;2.75;;;1.17;;
31990;SDS011;18508;49.386;8.370;2022-08-01T07:01:07;2.17;;;1.10;;
31990;SDS011;18508;49.386;8.370;2022-08-01T07:03:36;3.03;;;1.30;;
31990;SDS011;18508;49.386;8.370;2022-08-01T07:06:19;3.20;;;1.10;;
31990;SDS011;18508;49.386;8.370;2022-08-01T07:08:47;2.78;;;1.23;;
31990;SDS011;18508;49.386;8.370;2022-08-01T07:11:15;2.60;;;1.33;;
31990;SDS011;18508;49.386;8.370;2022-08-01T07:13:46;2.15;;;1.20;;
31990;SDS011;18508;49.386;8.370;2022-08-01T07:16:15;3.72;;;1.35;;
31990;SDS011;18508;49.386;8.370;2022-08-01T07:18:43;1.90;;;1.10;;
31990;SDS011;18508;49.386;8.370;2022-08-01T07:21:12;5.30;;;1.10;;
31990;SDS011;18508;49.386;8.370;2022-08-01T07:24:03;2.75;;;1.23;;
31990;SDS011;18508;49.386;8.370;2022-08-01T07:26:38;2.65;;;1.20;;
31990;SDS011;18508;49.386;8.370;2022-08-01T07:29:21;1.90;;;1.00;;
31990;SDS011;18508;49.386;8.370;2022-08-01T07:31:49;2.83;;;1.42;;
31990;SDS011;18508;49.386;8.370;2022-08-01T07:34:19;1.67;;;1.00;;
31990;SDS011;18508;49.386;8.370;2022-08-01T07:36:47;2.85;;;1.20;;
31990;SDS011;18508;49.386;8.370;2022-08-01T07:39:17;4.20;;;1.10;;
31990;SDS011;18508;49.386;8.370;2022-08-01T07:41:46;2.83;;;1.20;;
31990;SDS011;18508;49.386;8.370;2022-08-01T07:44:34;2.28;;;1.10;;
31990;SDS011;18508;49.386;8.370;2022-08-01T07:47:03;1.50;;;1.13;;
31990;SDS011;18508;49.386;8.370;2022-08-01T07:49:33;4.20;;;1.65;;
31990;SDS011;18508;49.386;8.370;2022-08-01T07:52:06;2.47;;;1.30;;
31990;SDS011;18508;49.386;8.370;2022-08-01T07:54:35;2.85;;;0.88;;
31990;SDS011;18508;49.386;8.370;2022-08-01T07:57:04;2.28;;;1.10;;
31990;SDS011;18508;49.386;8.370;2022-08-01T07:59:34;1.95;;;1.10;;
31990;SDS011;18508;49.386;8.370;2022-08-01T08:02:03;3.60;;;1.30;;
31990;SDS011;18508;49.386;8.370;2022-08-01T08:04:31;2.72;;;1.40;;
31990;SDS011;18508;49.386;8.370;2022-08-01T08:06:59;5.65;;;1.40;;
31990;SDS011;18508;49.386;8.370;2022-08-01T08:09:28;1.85;;;1.00;;
31990;SDS011;18508;49.386;8.370;2022-08-01T08:12:03;8.18;;;1.20;;
31990;SDS011;18508;49.386;8.370;2022-08-01T08:14:32;4.75;;;1.20;;
31990;SDS011;18508;49.386;8.370;2022-08-01T08:17:02;3.92;;;1.05;;
31990;SDS011;18508;49.386;8.370;2022-08-01T08:19:30;3.05;;;1.30;;
31990;SDS011;18508;49.386;8.370;2022-08-01T08:22:03;3.58;;;1.35;;
31990;SDS011;18508;49.386;8.370;2022-08-01T08:24:32;2.50;;;1.30;;
31990;SDS011;18508;49.386;8.370;2022-08-01T08:27:00;4.82;;;1.58;;
31990;SDS011;18508;49.386;8.370;2022-08-01T08:29:29;2.22;;;1.17;;
31990;SDS011;18508;49.386;8.370;2022-08-01T08:32:00;3.83;;;1.60;;
31990;SDS011;18508;49.386;8.370;2022-08-01T08:34:29;3.38;;;1.58;;
31990;SDS011;18508;49.386;8.370;2022-08-01T08:36:57;3.17;;;1.20;;
31990;SDS011;18508;49.386;8.370;2022-08-01T08:39:26;3.30;;;1.10;;
31990;SDS011;18508;49.386;8.370;2022-08-01T08:41:56;3.58;;;1.10;;
31990;SDS011;18508;49.386;8.370;2022-08-01T08:44:26;4.00;;;1.27;;
31990;SDS011;18508;49.386;8.370;2022-08-01T08:46:54;4.95;;;1.10;;
31990;SDS011;18508;49.386;8.370;2022-08-01T08:49:26;1.70;;;0.98;;
31990;SDS011;18508;49.386;8.370;2022-08-01T08:52:02;2.65;;;0.70;;
31990;SDS011;18508;49.386;8.370;2022-08-01T08:54:34;2.30;;;1.00;;
31990;SDS011;18508;49.386;8.370;2022-08-01T08:57:06;1.85;;;1.00;;
31990;SDS011;18508;49.386;8.370;2022-08-01T08:59:34;2.47;;;0.82;;
31990;SDS011;18508;49.386;8.370;2022-08-01T09:02:02;3.40;;;1.00;;
31990;SDS011;18508;49.386;8.370;2022-08-01T09:04:35;2.05;;;0.93;;
31990;SDS011;18508;49.386;8.370;2022-08-01T09:07:03;2.00;;;1.00;;
31990;SDS011;18508;49.386;8.370;2022-08-01T09:09:32;2.22;;;1.05;;
31990;SDS011;18508;49.386;8.370;2022-08-01T09:12:06;3.67;;;1.50;;
31990;SDS011;18508;49.386;8.370;2022-08-01T09:14:34;4.50;;;0.88;;
31990;SDS011;18508;49.386;8.370;2022-08-01T09:17:12;2.33;;;1.10;;
31990;SDS011;18508;49.386;8.370;2022-08-01T09:19:42;2.65;;;1.40;;
31990;SDS011;18508;49.386;8.370;2022-08-01T09:22:11;1.77;;;0.95;;
31990;SDS011;18508;49.386;8.370;2022-08-01T09:24:56;2.97;;;1.23;;
31990;SDS011;18508;49.386;8.370;2022-08-01T09:27:26;2.13;;;0.90;;
31990;SDS011;18508;49.386;8.370;2022-08-01T09:30:06;2.95;;;1.20;;
31990;SDS011;18508;49.386;8.370;2022-08-01T09:32:37;2.05;;;1.02;;
31990;SDS011;18508;49.386;8.370;2022-08-01T09:35:24;2.00;;;0.85;;
31990;SDS011;18508;49.386;8.370;2022-08-01T09:38:16;2.42;;;1.10;;
31990;SDS011;18508;49.386;8.370;2022-08-01T09:40:45;1.65;;;0.93;;
31990;SDS011;18508;49.386;8.370;2022-08-01T09:43:19;2.15;;;0.90;;
31990;SDS011;18508;49.386;8.370;2022-08-01T09:45:48;4.05;;;0.93;;
31990;SDS011;18508;49.386;8.370;2022-08-01T09:48:18;2.67;;;1.00;;
31990;SDS011;18508;49.386;8.370;2022-08-01T09:50:54;2.63;;;1.00;;
31990;SDS011;18508;49.386;8.370;2022-08-01T09:53:39;2.35;;;0.80;;
31990;SDS011;18508;49.386;8.370;2022-08-01T09:56:18;4.68;;;1.10;;
31990;SDS011;18508;49.386;8.370;2022-08-01T09:58:48;1.20;;;0.85;;
31990;SDS011;18508;49.386;8.370;2022-08-01T10:01:27;2.95;;;1.10;;
31990;SDS011;18508;49.386;8.370;2022-08-01T10:04:06;2.30;;;0.98;;
31990;SDS011;18508;49.386;8.370;2022-08-01T10:06:38;1.45;;;0.82;;
31990;SDS011;18508;49.386;8.370;2022-08-01T10:09:08;4.90;;;1.42;;
31990;SDS011;18508;49.386;8.370;2022-08-01T10:11:39;2.30;;;0.90;;
31990;SDS011;18508;49.386;8.370;2022-08-01T10:14:10;2.28;;;0.88;;
31990;SDS011;18508;49.386;8.370;2022-08-01T10:16:43;2.70;;;0.85;;
31990;SDS011;18508;49.386;8.370;2022-08-01T10:19:20;2.85;;;0.98;;
31990;SDS011;18508;49.386;8.370;2022-08-01T10:21:51;2.65;;;1.27;;
31990;SDS011;18508;49.386;8.370;2022-08-01T10:24:24;2.53;;;0.82;;
31990;SDS011;18508;49.386;8.370;2022-08-01T10:26:55;2.50;;;1.00;;
31990;SDS011;18508;49.386;8.370;2022-08-01T10:29:36;2.72;;;1.20;;
31990;SDS011;18508;49.386;8.370;2022-08-01T10:32:12;4.43;;;1.15;;
31990;SDS011;18508;49.386;8.370;2022-08-01T10:34:53;2.45;;;0.90;;
31990;SDS011;18508;49.386;8.370;2022-08-01T10:37:34;2.75;;;0.93;;
31990;SDS011;18508;49.386;8.370;2022-08-01T10:40:18;1.83;;;1.00;;
31990;SDS011;18508;49.386;8.370;2022-08-01T10:42:57;2.88;;;0.90;;
31990;SDS011;18508;49.386;8.370;2022-08-01T10:45:25;3.08;;;1.20;;
31990;SDS011;18508;49.386;8.370;2022-08-01T10:47:56;1.80;;;1.00;;
31990;SDS011;18508;49.386;8.370;2022-08-01T10:50:28;2.15;;;1.10;;
31990;SDS011;18508;49.386;8.370;2022-08-01T10:53:14;2.50;;;1.05;;
31990;SDS011;18508;49.386;8.370;2022-08-01T10:55:58;1.65;;;1.13;;
31990;SDS011;18508;49.386;8.370;2022-08-01T10:58:29;1.88;;;0.85;;
31990;SDS011;18508;49.386;8.370;2022-08-01T11:01:17;1.73;;;1.02;;
31990;SDS011;18508;49.386;8.370;2022-08-01T11:04:06;4.72;;;3.10;;
31990;SDS011;18508;49.386;8.370;2022-08-01T11:06:54;2.45;;;1.00;;
31990;SDS011;18508;49.386;8.370;2022-08-01T11:09:43;4.18;;;1.10;;
31990;SDS011;18508;49.386;8.370;2022-08-01T11:12:18;6.00;;;1.17;;
31990;SDS011;18508;49.386;8.370;2022-08-01T11:17:59;2.97;;;1.33;;
31990;SDS011;18508;49.386;8.370;2022-08-01T11:20:32;2.05;;;1.08;;
31990;SDS011;18508;49.386;8.370;2022-08-01T11:23:18;2.22;;;1.08;;
31990;SDS011;18508;49.386;8.370;2022-08-01T11:31:32;2.40;;;1.00;;
31990;SDS011;18508;49.386;8.370;2022-08-01T11:34:03;3.60;;;0.98;;
31990;SDS011;18508;49.386;8.370;2022-08-01T11:36:33;3.60;;;1.13;;
31990;SDS011;18508;49.386;8.370;2022-08-01T11:39:21;1.42;;;0.90;;
31990;SDS011;18508;49.386;8.370;2022-08-01T11:41:52;2.80;;;1.10;;
31990;SDS011;18508;49.386;8.370;2022-08-01T11:44:24;4.03;;;1.38;;
31990;SDS011;18508;49.386;8.370;2022-08-01T11:47:00;2.53;;;0.90;;
31990;SDS011;18508;49.386;8.370;2022-08-01T11:52:27;1.52;;;0.90;;
31990;SDS011;18508;49.386;8.370;2022-08-01T11:55:07;2.67;;;1.00;;
31990;SDS011;18508;49.386;8.370;2022-08-01T11:57:44;2.05;;;1.13;;
31990;SDS011;18508;49.386;8.370;2022-08-01T12:00:22;2.47;;;0.90;;
31990;SDS011;18508;49.386;8.370;2022-08-01T12:02:56;2.17;;;1.20;;
31990;SDS011;18508;49.386;8.370;2022-08-01T12:05:32;2.40;;;1.02;;
31990;SDS011;18508;49.386;8.370;2022-08-01T12:08:11;1.80;;;0.80;;
31990;SDS011;18508;49.386;8.370;2022-08-01T12:10:49;2.03;;;1.30;;
31990;SDS011;18508;49.386;8.370;2022-08-01T12:13:29;2.40;;;1.00;;
31990;SDS011;18508;49.386;8.370;2022-08-01T12:16:08;3.63;;;0.85;;
31990;SDS011;18508;49.386;8.370;2022-08-01T12:18:38;2.70;;;1.08;;
31990;SDS011;18508;49.386;8.370;2022-08-01T12:21:06;2.70;;;1.30;;
31990;SDS011;18508;49.386;8.370;2022-08-01T12:23:35;3.15;;;0.90;;
31990;SDS011;18508;49.386;8.370;2022-08-01T12:26:09;2.88;;;1.00;;
31990;SDS011;18508;49.386;8.370;2022-08-01T12:28:59;3.65;;;1.33;;
31990;SDS011;18508;49.386;8.370;2022-08-01T12:31:30;3.00;;;1.10;;
31990;SDS011;18508;49.386;8.370;2022-08-01T12:37:03;2.47;;;1.00;;
31990;SDS011;18508;49.386;8.370;2022-08-01T12:39:32;3.70;;;1.17;;
31990;SDS011;18508;49.386;8.370;2022-08-01T12:42:13;3.10;;;1.30;;
31990;SDS011;18508;49.386;8.370;2022-08-01T12:44:44;2.42;;;1.17;;
31990;SDS011;18508;49.386;8.370;2022-08-01T12:47:15;3.97;;;1.00;;
31990;SDS011;18508;49.386;8.370;2022-08-01T12:49:43;2.72;;;1.23;;
31990;SDS011;18508;49.386;8.370;2022-08-01T12:52:12;1.75;;;1.10;;
31990;SDS011;18508;49.386;8.370;2022-08-01T12:57:35;6.32;;;1.50;;
31990;SDS011;18508;49.386;8.370;2022-08-01T13:00:14;3.95;;;1.40;;
31990;SDS011;18508;49.386;8.370;2022-08-01T13:02:49;3.08;;;1.20;;
31990;SDS011;18508;49.386;8.370;2022-08-01T13:05:40;3.63;;;1.00;;
31990;SDS011;18508;49.386;8.370;2022-08-01T13:08:12;3.13;;;1.25;;
31990;SDS011;18508;49.386;8.370;2022-08-01T13:10:41;8.23;;;1.60;;
31990;SDS011;18508;49.386;8.370;2022-08-01T13:13:11;4.22;;;1.48;;
31990;SDS011;18508;49.386;8.370;2022-08-01T13:16:03;2.35;;;0.90;;
31990;SDS011;18508;49.386;8.370;2022-08-01T13:18:37;4.03;;;1.20;;
31990;SDS011;18508;49.386;8.370;2022-08-01T13:21:06;2.00;;;1.08;;
31990;SDS011;18508;49.386;8.370;2022-08-01T13:23:36;3.67;;;1.20;;
31990;SDS011;18508;49.386;8.370;2022-08-01T13:26:37;4.28;;;1.15;;
31990;SDS011;18508;49.386;8.370;2022-08-01T13:29:05;3.40;;;1.10;;
31990;SDS011;18508;49.386;8.370;2022-08-01T13:31:36;2.47;;;1.10;;
31990;SDS011;18508;49.386;8.370;2022-08-01T13:34:06;3.45;;;1.42;;
31990;SDS011;18508;49.386;8.370;2022-08-01T13:36:35;4.82;;;1.23;;
31990;SDS011;18508;49.386;8.370;2022-08-01T13:39:03;2.20;;;1.23;;
31990;SDS011;18508;49.386;8.370;2022-08-01T13:42:01;2.33;;;1.45;;
31990;SDS011;18508;49.386;8.370;2022-08-01T13:44:30;4.72;;;1.45;;
31990;SDS011;18508;49.386;8.370;2022-08-01T13:46:59;2.72;;;1.33;;
31990;SDS011;18508;49.386;8.370;2022-08-01T13:49:41;3.55;;;1.27;;
31990;SDS011;18508;49.386;8.370;2022-08-01T13:52:09;2.92;;;1.20;;
31990;SDS011;18508;49.386;8.370;2022-08-01T13:54:37;3.58;;;1.60;;
31990;SDS011;18508;49.386;8.370;2022-08-01T13:57:05;2.17;;;1.48;;
31990;SDS011;18508;49.386;8.370;2022-08-01T13:59:33;2.72;;;1.55;;
31990;SDS011;18508;49.386;8.370;2022-08-01T14:02:03;2.72;;;1.63;;
31990;SDS011;18508;49.386;8.370;2022-08-01T14:04:31;2.55;;;1.15;;
31990;SDS011;18508;49.386;8.370;2022-08-01T14:06:59;1.92;;;0.90;;
31990;SDS011;18508;49.386;8.370;2022-08-01T14:09:37;1.15;;;0.80;;
31990;SDS011;18508;49.386;8.370;2022-08-01T14:12:25;3.30;;;0.80;;
31990;SDS011;18508;49.386;8.370;2022-08-01T14:14:53;1.63;;;0.60;;
31990;SDS011;18508;49.386;8.370;2022-08-01T14:17:22;2.42;;;0.70;;
31990;SDS011;18508;49.386;8.370;2022-08-01T14:22:22;2.65;;;0.70;;
31990;SDS011;18508;49.386;8.370;2022-08-01T14:24:50;1.05;;;0.60;;
31990;SDS011;18508;49.386;8.370;2022-08-01T14:27:24;1.92;;;0.95;;
31990;SDS011;18508;49.386;8.370;2022-08-01T14:29:52;3.97;;;0.85;;
31990;SDS011;18508;49.386;8.370;2022-08-01T14:32:30;2.75;;;0.80;;
31990;SDS011;18508;49.386;8.370;2022-08-01T14:34:59;1.85;;;0.93;;
31990;SDS011;18508;49.386;8.370;2022-08-01T14:37:27;1.05;;;0.60;;
31990;SDS011;18508;49.386;8.370;2022-08-01T14:40:03;2.80;;;1.00;;
31990;SDS011;18508;49.386;8.370;2022-08-01T14:42:35;1.13;;;0.60;;
31990;SDS011;18508;49.386;8.370;2022-08-01T14:45:04;1.00;;;0.60;;
31990;SDS011;18508;49.386;8.370;2022-08-01T14:47:36;2.38;;;0.70;;
31990;SDS011;18508;49.386;8.370;2022-08-01T14:50:05;4.55;;;1.02;;
31990;SDS011;18508;49.386;8.370;2022-08-01T14:52:35;2.03;;;0.73;;
31990;SDS011;18508;49.386;8.370;2022-08-01T14:55:04;8.20;;;1.20;;
31990;SDS011;18508;49.386;8.370;2022-08-01T14:57:34;7.32;;;0.82;;
31990;SDS011;18508;49.386;8.370;2022-08-01T15:00:03;1.98;;;0.65;;
31990;SDS011;18508;49.386;8.370;2022-08-01T15:02:33;4.40;;;0.80;;
31990;SDS011;18508;49.386;8.370;2022-08-01T15:05:03;4.85;;;1.13;;
31990;SDS011;18508;49.386;8.370;2022-08-01T15:07:31;2.33;;;1.10;;
31990;SDS011;18508;49.386;8.370;2022-08-01T15:10:05;3.28;;;1.10;;
31990;SDS011;18508;49.386;8.370;2022-08-01T15:12:35;8.32;;;1.17;;
31990;SDS011;18508;49.386;8.370;2022-08-01T15:15:15;12.25;;;1.85;;
31990;SDS011;18508;49.386;8.370;2022-08-01T15:17:43;8.10;;;1.58;;
31990;SDS011;18508;49.386;8.370;2022-08-01T15:20:13;5.50;;;1.38;;
31990;SDS011;18508;49.386;8.370;2022-08-01T15:22:41;2.28;;;1.05;;
31990;SDS011;18508;49.386;8.370;2022-08-01T15:25:09;6.80;;;1.15;;
31990;SDS011;18508;49.386;8.370;2022-08-01T15:27:37;6.13;;;1.23;;
31990;SDS011;18508;49.386;8.370;2022-08-01T15:30:06;3.08;;;0.90;;
31990;SDS011;18508;49.386;8.370;2022-08-01T15:32:35;3.22;;;0.85;;
31990;SDS011;18508;49.386;8.370;2022-08-01T15:35:03;1.77;;;0.90;;
31990;SDS011;18508;49.386;8.370;2022-08-01T15:37:34;3.05;;;0.88;;
31990;SDS011;18508;49.386;8.370;2022-08-01T15:40:08;2.45;;;0.98;;
31990;SDS011;18508;49.386;8.370;2022-08-01T15:42:37;6.05;;;1.15;;
31990;SDS011;18508;49.386;8.370;2022-08-01T15:45:05;2.08;;;0.95;;